Time;durP1;ratioP1;P1;durP2;ratioP2;P2;SDS_P1;SDS_P2;PMS_P1;PMS_P2;Temp;Humidity;BMP_temperature;BMP_pressure;BME280_temperature;BME280_humidity;BME280_pressure;Samples;Min_cycle;Max_cycle;Signal;HPM_P1;HPM_P2
2023/08/03 00:01:57;;;;;;;5.03;1.20;;;;;;;;;;5121154;27;20030;-64
2023/08/03 00:04:22;;;;;;;4.47;1.20;;;;;;;;;;5119119;27;20023;-61
2023/08/03 00:06:47;;;;;;;4.33;1.03;;;;;;;;;;5124293;27;20039;-63
2023/08/03 00:09:12;;;;;;;3.75;0.93;;;;;;;;;;5120021;27;20364;-61
2023/08/03 00:11:37;;;;;;;3.63;1.00;;;;;;;;;;5115398;27;20020;-62
2023/08/03 00:14:02;;;;;;;6.82;1.13;;;;;;;;;;5117753;27;20031;-66
2023/08/03 00:16:28;;;;;;;3.40;0.87;;;;;;;;;;5116957;27;20049;-62
2023/08/03 00:18:53;;;;;;;3.55;1.02;;;;;;;;;;5123479;27;20027;-63
2023/08/03 00:21:18;;;;;;;4.60;1.00;;;;;;;;;;5120899;27;20027;-62
2023/08/03 00:23:43;;;;;;;4.80;1.27;;;;;;;;;;5123325;27;20039;-63
2023/08/03 00:26:08;;;;;;;3.97;1.17;;;;;;;;;;5114396;27;20507;-62
2023/08/03 00:28:33;;;;;;;4.97;0.90;;;;;;;;;;5108576;27;20538;-63
2023/08/03 00:30:59;;;;;;;4.37;1.30;;;;;;;;;;5120774;27;20030;-62
2023/08/03 00:33:24;;;;;;;6.93;1.30;;;;;;;;;;5108555;27;20097;-63
2023/08/03 00:35:49;;;;;;;6.37;1.43;;;;;;;;;;5118020;27;20048;-64
2023/08/03 00:38:14;;;;;;;5.38;1.00;;;;;;;;;;5118378;27;20034;-62
2023/08/03 00:40:39;;;;;;;6.03;1.30;;;;;;;;;;5118123;27;20031;-64
2023/08/03 00:43:05;;;;;;;3.90;1.03;;;;;;;;;;5117385;27;20467;-62
2023/08/03 00:45:30;;;;;;;6.00;1.10;;;;;;;;;;5116672;27;20026;-63
2023/08/03 00:47:55;;;;;;;4.90;0.90;;;;;;;;;;5122696;27;20027;-63
2023/08/03 00:50:20;;;;;;;4.77;0.97;;;;;;;;;;5115937;27;20025;-62
2023/08/03 00:52:45;;;;;;;4.57;0.90;;;;;;;;;;5113367;27;20036;-63
2023/08/03 00:55:11;;;;;;;5.80;1.20;;;;;;;;;;5120756;27;20015;-63
2023/08/03 00:57:36;;;;;;;6.13;1.15;;;;;;;;;;5117750;27;20024;-64
2023/08/03 01:00:01;;;;;;;5.15;1.20;;;;;;;;;;5114915;27;20035;-62
2023/08/03 01:02:26;;;;;;;4.33;1.10;;;;;;;;;;5116867;27;20466;-62
2023/08/03 01:04:51;;;;;;;4.07;1.13;;;;;;;;;;5119593;27;20023;-63
2023/08/03 01:07:16;;;;;;;4.50;1.10;;;;;;;;;;5121863;27;20023;-62
2023/08/03 01:09:42;;;;;;;3.33;0.90;;;;;;;;;;5118914;27;20100;-62
2023/08/03 01:12:07;;;;;;;3.97;1.00;;;;;;;;;;5118341;27;21055;-62
2023/08/03 01:14:32;;;;;;;5.82;1.15;;;;;;;;;;5119877;27;20102;-62
2023/08/03 01:16:57;;;;;;;8.73;1.43;;;;;;;;;;5122238;27;20049;-63
2023/08/03 01:19:23;;;;;;;4.63;1.00;;;;;;;;;;5114834;27;20063;-61
2023/08/03 01:21:49;;;;;;;6.95;1.35;;;;;;;;;;5116676;27;20019;-63
2023/08/03 01:24:14;;;;;;;5.82;0.95;;;;;;;;;;5112858;27;20043;-63
2023/08/03 01:26:40;;;;;;;5.63;1.23;;;;;;;;;;5117845;27;20674;-62
2023/08/03 01:29:05;;;;;;;4.65;1.02;;;;;;;;;;5117668;27;20541;-62
2023/08/03 01:31:31;;;;;;;5.40;1.10;;;;;;;;;;5109506;27;20030;-62
2023/08/03 01:33:56;;;;;;;5.35;1.55;;;;;;;;;;5108270;27;20039;-64
2023/08/03 01:36:21;;;;;;;6.23;1.00;;;;;;;;;;5111326;27;20106;-62
2023/08/03 01:38:52;;;;;;;6.70;1.17;;;;;;;;;;5112689;27;20034;-64
2023/08/03 01:41:17;;;;;;;7.03;1.25;;;;;;;;;;5113744;27;20418;-63
2023/08/03 01:43:43;;;;;;;7.30;1.30;;;;;;;;;;5120569;27;20026;-61
2023/08/03 01:46:08;;;;;;;4.68;1.13;;;;;;;;;;5111838;27;20128;-61
2023/08/03 01:48:33;;;;;;;3.90;0.90;;;;;;;;;;5114053;27;20016;-64
2023/08/03 01:50:58;;;;;;;4.03;1.07;;;;;;;;;;5116705;27;20492;-63
2023/08/03 01:53:23;;;;;;;6.15;1.05;;;;;;;;;;5112721;27;20640;-63
2023/08/03 01:55:49;;;;;;;6.55;1.13;;;;;;;;;;5117009;27;20046;-60
2023/08/03 01:58:14;;;;;;;6.93;1.17;;;;;;;;;;5116474;27;20023;-61
2023/08/03 02:00:40;;;;;;;5.73;1.00;;;;;;;;;;5122193;27;20038;-61
2023/08/03 02:03:05;;;;;;;5.43;1.20;;;;;;;;;;5113668;27;20017;-63
2023/08/03 02:05:30;;;;;;;8.70;1.63;;;;;;;;;;5110857;27;20023;-62
2023/08/03 02:07:55;;;;;;;3.08;0.90;;;;;;;;;;5125188;27;20019;-62
2023/08/03 02:10:22;;;;;;;6.53;1.23;;;;;;;;;;5119039;27;20019;-62
2023/08/03 02:12:47;;;;;;;;;;;;;;;;;;5114362;27;20023;-63
2023/08/03 02:15:15;;;;;;;5.45;1.42;;;;;;;;;;5118283;27;19937;-62
2023/08/03 02:17:41;;;;;;;6.15;1.10;;;;;;;;;;5121686;27;20471;-62
2023/08/03 02:20:07;;;;;;;7.88;1.67;;;;;;;;;;5121665;27;20048;-61
2023/08/03 02:22:32;;;;;;;3.80;0.95;;;;;;;;;;5118256;27;20056;-62
2023/08/03 02:24:57;;;;;;;5.68;1.20;;;;;;;;;;5122960;27;20031;-63
2023/08/03 02:27:22;;;;;;;5.13;1.08;;;;;;;;;;5125649;27;20038;-61
2023/08/03 02:29:47;;;;;;;5.13;0.90;;;;;;;;;;5119490;27;22152;-60
2023/08/03 02:32:12;;;;;;;5.43;1.05;;;;;;;;;;5116512;27;20022;-61
2023/08/03 02:34:37;;;;;;;4.93;0.90;;;;;;;;;;5126137;27;20504;-63
2023/08/03 02:37:03;;;;;;;7.10;1.30;;;;;;;;;;5125467;27;20029;-61
2023/08/03 02:39:28;;;;;;;6.17;1.13;;;;;;;;;;5122399;27;20059;-63
2023/08/03 02:41:53;;;;;;;5.20;1.23;;;;;;;;;;5116815;27;20091;-61
2023/08/03 02:44:18;;;;;;;8.02;1.17;;;;;;;;;;5114242;27;20063;-61
2023/08/03 02:46:43;;;;;;;4.27;1.17;;;;;;;;;;5119251;27;20081;-61
2023/08/03 02:49:08;;;;;;;5.23;1.27;;;;;;;;;;5122389;27;20028;-63
2023/08/03 02:51:34;;;;;;;4.77;1.10;;;;;;;;;;5120013;27;20031;-63
2023/08/03 02:53:59;;;;;;;4.77;1.00;;;;;;;;;;5119800;27;20018;-64
2023/08/03 02:56:24;;;;;;;6.40;1.17;;;;;;;;;;5118258;27;20031;-62
2023/08/03 02:58:49;;;;;;;6.80;1.27;;;;;;;;;;5124863;27;20026;-61
2023/08/03 03:01:14;;;;;;;3.70;1.00;;;;;;;;;;5111905;27;20387;-62
2023/08/03 03:03:40;;;;;;;5.30;1.20;;;;;;;;;;5115391;27;20039;-61
2023/08/03 03:06:05;;;;;;;5.47;1.20;;;;;;;;;;5119422;27;20710;-61
2023/08/03 03:08:31;;;;;;;6.03;1.07;;;;;;;;;;5112019;27;20023;-62
2023/08/03 03:10:56;;;;;;;;;;;;;;;;;;5120098;27;20039;-62
2023/08/03 03:13:23;;;;;;;5.43;1.00;;;;;;;;;;5116179;27;19907;-61
2023/08/03 03:15:48;;;;;;;5.00;1.17;;;;;;;;;;5116224;27;20043;-61
2023/08/03 03:18:13;;;;;;;5.83;1.07;;;;;;;;;;5121450;27;20072;-62
2023/08/03 03:20:39;;;;;;;5.70;1.25;;;;;;;;;;5122502;27;20034;-62
2023/08/03 03:23:04;;;;;;;4.85;1.13;;;;;;;;;;5120578;27;20027;-61
2023/08/03 03:25:29;;;;;;;4.03;1.20;;;;;;;;;;5118839;27;20023;-62
2023/08/03 03:27:55;;;;;;;7.05;1.35;;;;;;;;;;5112169;27;20020;-62
2023/08/03 03:30:20;;;;;;;6.53;1.00;;;;;;;;;;5117973;27;20024;-61
2023/08/03 03:32:45;;;;;;;6.95;1.50;;;;;;;;;;5127240;27;20029;-62
2023/08/03 03:35:10;;;;;;;5.85;1.00;;;;;;;;;;5119019;27;20088;-61
2023/08/03 03:37:36;;;;;;;8.37;1.47;;;;;;;;;;5119634;27;20378;-62
2023/08/03 03:40:01;;;;;;;5.67;1.50;;;;;;;;;;5124667;27;20031;-62
2023/08/03 03:42:26;;;;;;;6.73;0.97;;;;;;;;;;5115202;27;20378;-62
2023/08/03 03:44:51;;;;;;;5.43;1.10;;;;;;;;;;5120165;27;20391;-61
2023/08/03 03:47:16;;;;;;;4.77;1.17;;;;;;;;;;5119161;27;20103;-61
2023/08/03 03:49:41;;;;;;;4.63;1.10;;;;;;;;;;5122174;27;20028;-62
2023/08/03 03:52:07;;;;;;;6.47;1.30;;;;;;;;;;5127380;27;20020;-62
2023/08/03 03:54:32;;;;;;;4.15;1.00;;;;;;;;;;5121775;27;20039;-62
2023/08/03 03:56:58;;;;;;;6.75;1.00;;;;;;;;;;5127007;27;20023;-62
2023/08/03 03:59:23;;;;;;;5.80;1.10;;;;;;;;;;5119955;27;20478;-61
2023/08/03 04:01:48;;;;;;;6.90;1.00;;;;;;;;;;5126724;27;20020;-61
2023/08/03 04:04:13;;;;;;;6.65;1.10;;;;;;;;;;5121639;27;20028;-62
2023/08/03 04:06:38;;;;;;;5.30;1.10;;;;;;;;;;5117695;27;20138;-63
2023/08/03 04:09:03;;;;;;;5.63;1.10;;;;;;;;;;5121973;27;20027;-62
2023/08/03 04:11:29;;;;;;;8.97;1.50;;;;;;;;;;5123645;27;20371;-61
2023/08/03 04:13:54;;;;;;;4.32;0.95;;;;;;;;;;5120095;27;20059;-62
2023/08/03 04:16:19;;;;;;;7.55;1.30;;;;;;;;;;5119735;27;20496;-62
2023/08/03 04:18:44;;;;;;;6.60;1.10;;;;;;;;;;5120458;27;20023;-61
2023/08/03 04:21:09;;;;;;;7.50;1.40;;;;;;;;;;5120798;27;20023;-61
2023/08/03 04:23:34;;;;;;;6.95;1.20;;;;;;;;;;5121422;27;20119;-62
2023/08/03 04:26:00;;;;;;;7.13;1.38;;;;;;;;;;5116540;27;20092;-62
2023/08/03 04:28:25;;;;;;;5.88;1.02;;;;;;;;;;5115129;27;20026;-62
2023/08/03 04:30:50;;;;;;;8.77;1.35;;;;;;;;;;5115481;27;20027;-61
2023/08/03 04:33:15;;;;;;;7.50;1.27;;;;;;;;;;5117882;27;20048;-61
2023/08/03 04:35:40;;;;;;;5.93;1.20;;;;;;;;;;5119762;27;20532;-60
2023/08/03 04:38:06;;;;;;;4.50;1.23;;;;;;;;;;5118334;27;20106;-63
2023/08/03 04:40:31;;;;;;;5.60;1.02;;;;;;;;;;5121740;27;20027;-62
2023/08/03 04:42:56;;;;;;;4.75;1.00;;;;;;;;;;5126487;27;20504;-64
2023/08/03 04:45:21;;;;;;;6.70;1.07;;;;;;;;;;5117235;27;20028;-63
2023/08/03 04:47:46;;;;;;;6.32;0.98;;;;;;;;;;5121800;27;21108;-63
2023/08/03 04:50:11;;;;;;;5.40;1.20;;;;;;;;;;5118852;27;20027;-61
2023/08/03 04:52:36;;;;;;;4.47;1.03;;;;;;;;;;5117715;27;20106;-62
2023/08/03 04:55:02;;;;;;;7.85;1.00;;;;;;;;;;5119020;27;20019;-60
2023/08/03 04:57:27;;;;;;;2.47;0.70;;;;;;;;;;5121423;27;20038;-62
2023/08/03 04:59:52;;;;;;;4.77;1.10;;;;;;;;;;5116925;27;20114;-64
2023/08/03 05:02:17;;;;;;;5.63;1.10;;;;;;;;;;5107993;27;20440;-63
2023/08/03 05:04:42;;;;;;;6.50;1.10;;;;;;;;;;5118931;27;20106;-61
2023/08/03 05:07:07;;;;;;;4.57;1.13;;;;;;;;;;5117043;27;20396;-63
2023/08/03 05:09:33;;;;;;;2.63;0.70;;;;;;;;;;5116328;27;20012;-63
2023/08/03 05:11:58;;;;;;;5.77;1.00;;;;;;;;;;5117744;27;20437;-63
2023/08/03 05:14:23;;;;;;;6.40;1.08;;;;;;;;;;5120344;27;20039;-63
2023/08/03 05:16:48;;;;;;;3.70;0.80;;;;;;;;;;5118959;27;20524;-63
2023/08/03 05:19:13;;;;;;;6.78;1.08;;;;;;;;;;5107881;27;20559;-62
2023/08/03 05:21:39;;;;;;;5.57;1.00;;;;;;;;;;5113833;27;20045;-61
2023/08/03 05:24:04;;;;;;;3.73;0.87;;;;;;;;;;5120869;27;20018;-62
2023/08/03 05:26:35;;;;;;;8.03;1.30;;;;;;;;;;5113814;27;20023;-61
2023/08/03 05:29:02;;;;;;;6.90;0.98;;;;;;;;;;5113971;27;20522;-62
2023/08/03 05:31:27;;;;;;;4.10;0.80;;;;;;;;;;5111171;27;20653;-63
2023/08/03 05:33:53;;;;;;;6.23;1.13;;;;;;;;;;5109432;27;20561;-62
2023/08/03 05:36:19;;;;;;;5.75;0.90;;;;;;;;;;5110644;27;21634;-62
2023/08/03 05:38:44;;;;;;;6.03;1.00;;;;;;;;;;5119373;27;20075;-61
2023/08/03 05:41:13;;;;;;;4.38;0.90;;;;;;;;;;5111426;27;20076;-62
2023/08/03 05:43:38;;;;;;;5.70;0.93;;;;;;;;;;5114854;27;20174;-62
2023/08/03 05:46:04;;;;;;;4.23;0.90;;;;;;;;;;5113396;27;20110;-62
2023/08/03 05:48:29;;;;;;;;;;;;;;;;;;5115159;27;20019;-62
2023/08/03 05:50:56;;;;;;;7.83;1.40;;;;;;;;;;5108094;27;20010;-62
2023/08/03 05:53:22;;;;;;;5.72;1.10;;;;;;;;;;5112149;27;20027;-62
2023/08/03 05:55:47;;;;;;;3.70;1.05;;;;;;;;;;5111049;27;20244;-62
2023/08/03 05:58:13;;;;;;;2.43;0.67;;;;;;;;;;5107999;27;20057;-61
2023/08/03 06:00:45;;;;;;;5.72;1.00;;;;;;;;;;5108808;27;20038;-62
2023/08/03 06:03:11;;;;;;;4.25;1.00;;;;;;;;;;5121358;27;20116;-61
2023/08/03 06:05:39;;;;;;;3.97;1.05;;;;;;;;;;5110840;27;20956;-63
2023/08/03 06:08:25;;;;;;;6.03;1.02;;;;;;;;;;5120555;27;20139;-62
2023/08/03 06:10:54;;;;;;;3.67;0.80;;;;;;;;;;5112626;27;20053;-61
2023/08/03 06:13:21;;;;;;;5.32;0.90;;;;;;;;;;5120407;27;20053;-63
2023/08/03 06:15:47;;;;;;;3.60;1.00;;;;;;;;;;5115556;27;20055;-64
2023/08/03 06:18:12;;;;;;;;;;;;;;;;;;5122171;27;20019;-63
2023/08/03 06:20:39;;;;;;;6.18;1.42;;;;;;;;;;5117115;27;19958;-63
2023/08/03 06:23:04;;;;;;;5.38;0.85;;;;;;;;;;5122877;27;20483;-63
2023/08/03 06:25:30;;;;;;;3.63;0.70;;;;;;;;;;5116376;27;20027;-63
2023/08/03 06:27:57;;;;;;;3.67;0.63;;;;;;;;;;5119459;27;20027;-62
2023/08/03 06:30:22;;;;;;;2.97;0.70;;;;;;;;;;5112818;27;20023;-62
2023/08/03 06:32:49;;;;;;;3.43;0.70;;;;;;;;;;5103152;27;20513;-64
2023/08/03 06:35:25;;;;;;;3.67;0.80;;;;;;;;;;5117549;28;20485;-62
2023/08/03 06:37:52;;;;;;;4.85;0.95;;;;;;;;;;5117278;27;20018;-63
2023/08/03 06:40:17;;;;;;;4.60;0.60;;;;;;;;;;5116141;27;20034;-67
2023/08/03 06:42:42;;;;;;;4.93;0.80;;;;;;;;;;5107575;27;20379;-63
2023/08/03 06:45:08;;;;;;;3.37;0.80;;;;;;;;;;5125174;27;20132;-63
2023/08/03 06:47:33;;;;;;;3.05;0.65;;;;;;;;;;5111172;27;20502;-63
2023/08/03 06:49:58;;;;;;;6.43;0.80;;;;;;;;;;5109250;27;20491;-64
2023/08/03 06:52:23;;;;;;;4.93;1.00;;;;;;;;;;5115048;27;20030;-63
2023/08/03 06:54:48;;;;;;;4.37;0.67;;;;;;;;;;5117301;27;20051;-63
2023/08/03 06:57:13;;;;;;;5.13;0.70;;;;;;;;;;5110091;27;20453;-63
2023/08/03 06:59:39;;;;;;;;;;;;;;;;;;5112976;27;20035;-63
2023/08/03 07:02:04;;;;;;;3.20;0.80;;;;;;;;;;5125421;27;19908;-62
2023/08/03 07:04:29;;;;;;;4.23;0.80;;;;;;;;;;5115416;27;20505;-63
2023/08/03 07:06:54;;;;;;;2.43;0.60;;;;;;;;;;5120836;27;20043;-63
2023/08/03 07:09:19;;;;;;;3.67;0.80;;;;;;;;;;5119548;27;20023;-62
2023/08/03 07:11:46;;;;;;;6.50;0.90;;;;;;;;;;5116046;27;20023;-63
2023/08/03 07:14:11;;;;;;;3.85;0.60;;;;;;;;;;5131868;27;20380;-62
2023/08/03 07:16:36;;;;;;;5.95;0.68;;;;;;;;;;5117281;27;20133;-62
2023/08/03 07:19:02;;;;;;;3.08;0.50;;;;;;;;;;5114626;27;20042;-62
2023/08/03 07:21:27;;;;;;;3.23;0.70;;;;;;;;;;5126537;27;20031;-62
2023/08/03 07:23:52;;;;;;;2.45;0.43;;;;;;;;;;5132517;27;20076;-61
2023/08/03 07:26:17;;;;;;;3.20;0.50;;;;;;;;;;5120032;27;20512;-62
2023/08/03 07:28:42;;;;;;;4.17;0.70;;;;;;;;;;5119415;27;20048;-60
2023/08/03 07:31:14;;;;;;;3.33;0.50;;;;;;;;;;5119818;27;20077;-61
2023/08/03 07:33:39;;;;;;;2.25;0.70;;;;;;;;;;5119878;27;20030;-63
2023/08/03 07:36:04;;;;;;;2.50;0.40;;;;;;;;;;5116524;27;20016;-63
2023/08/03 07:38:29;;;;;;;4.60;0.50;;;;;;;;;;5123592;27;20035;-61
2023/08/03 07:40:55;;;;;;;3.67;0.80;;;;;;;;;;5118955;27;20471;-62
2023/08/03 07:43:20;;;;;;;5.22;0.70;;;;;;;;;;5116858;27;20020;-60
2023/08/03 07:45:45;;;;;;;3.67;0.70;;;;;;;;;;5121415;27;20023;-61
2023/08/03 07:48:10;;;;;;;3.83;0.70;;;;;;;;;;5116553;27;20479;-61
2023/08/03 07:50:36;;;;;;;3.40;0.80;;;;;;;;;;5119865;27;20020;-61
2023/08/03 07:53:01;;;;;;;3.53;0.70;;;;;;;;;;5119778;27;20445;-60
2023/08/03 07:55:26;;;;;;;5.20;0.90;;;;;;;;;;5122326;27;20027;-60
2023/08/03 07:57:51;;;;;;;3.93;0.60;;;;;;;;;;5122336;27;20038;-60
2023/08/03 08:00:16;;;;;;;3.87;0.63;;;;;;;;;;5123611;27;20694;-62
2023/08/03 08:02:42;;;;;;;4.27;0.90;;;;;;;;;;5126510;27;20031;-62
2023/08/03 08:05:07;;;;;;;4.57;0.70;;;;;;;;;;5120280;27;20456;-61
2023/08/03 08:07:32;;;;;;;2.83;0.60;;;;;;;;;;5113095;27;20035;-60
2023/08/03 08:09:57;;;;;;;5.30;0.70;;;;;;;;;;5114337;27;20747;-60
2023/08/03 08:12:22;;;;;;;5.30;0.77;;;;;;;;;;5108022;27;20080;-60
2023/08/03 08:14:47;;;;;;;3.90;0.60;;;;;;;;;;5107105;27;20050;-60
2023/08/03 08:17:13;;;;;;;5.70;0.93;;;;;;;;;;5113965;27;20023;-61
2023/08/03 08:19:38;;;;;;;2.85;0.70;;;;;;;;;;5123027;27;20052;-60
2023/08/03 08:22:03;;;;;;;2.05;0.63;;;;;;;;;;5127153;27;20418;-61
2023/08/03 08:24:28;;;;;;;5.22;0.63;;;;;;;;;;5118230;27;20079;-62
2023/08/03 08:26:53;;;;;;;3.00;0.60;;;;;;;;;;5120272;27;20129;-60
2023/08/03 08:29:19;;;;;;;2.40;0.43;;;;;;;;;;5121448;27;20149;-63
2023/08/03 08:31:44;;;;;;;2.77;0.57;;;;;;;;;;5120028;27;20079;-63
2023/08/03 08:34:09;;;;;;;3.60;0.60;;;;;;;;;;5114425;27;20016;-63
2023/08/03 08:36:34;;;;;;;2.43;0.50;;;;;;;;;;5124387;27;20018;-62
2023/08/03 08:38:59;;;;;;;4.03;0.60;;;;;;;;;;5131177;27;20136;-60
2023/08/03 08:41:25;;;;;;;1.85;0.55;;;;;;;;;;5119739;27;20034;-61
2023/08/03 08:43:50;;;;;;;3.47;0.70;;;;;;;;;;5121609;27;20023;-61
2023/08/03 08:46:15;;;;;;;2.30;0.67;;;;;;;;;;5121219;27;20023;-61
2023/08/03 08:48:40;;;;;;;2.53;0.50;;;;;;;;;;5120214;27;20024;-62
2023/08/03 08:51:06;;;;;;;3.57;0.50;;;;;;;;;;5116960;27;20030;-62
2023/08/03 08:53:31;;;;;;;3.88;0.80;;;;;;;;;;5126063;27;20015;-62
2023/08/03 08:55:56;;;;;;;4.73;0.70;;;;;;;;;;5125132;27;20110;-62
2023/08/03 08:58:24;;;;;;;3.03;0.60;;;;;;;;;;5115451;27;20016;-61
2023/08/03 09:00:49;;;;;;;3.33;0.50;;;;;;;;;;5124361;27;20035;-63
2023/08/03 09:03:15;;;;;;;5.93;0.97;;;;;;;;;;5112697;27;20569;-62
2023/08/03 09:05:40;;;;;;;4.45;0.82;;;;;;;;;;5124266;27;20024;-60
2023/08/03 09:08:06;;;;;;;3.63;0.63;;;;;;;;;;5130966;27;20015;-61
2023/08/03 09:10:31;;;;;;;;;;;;;;;;;;5125177;27;20372;-61
2023/08/03 09:12:57;;;;;;;3.50;0.63;;;;;;;;;;5116808;27;20467;-66
2023/08/03 09:15:35;;;;;;;2.92;0.60;;;;;;;;;;5116592;27;20524;-61
2023/08/03 09:18:04;;;;;;;5.10;0.70;;;;;;;;;;5121555;27;20096;-62
2023/08/03 09:20:31;;;;;;;3.80;0.55;;;;;;;;;;5128607;27;20034;-61
2023/08/03 09:22:56;;;;;;;3.00;0.68;;;;;;;;;;5132293;27;20558;-61
2023/08/03 09:25:21;;;;;;;6.73;0.60;;;;;;;;;;5131712;27;20061;-61
2023/08/03 09:27:48;;;;;;;4.27;0.50;;;;;;;;;;5126837;27;20054;-60
2023/08/03 09:30:13;;;;;;;3.88;0.70;;;;;;;;;;5125301;27;20044;-59
2023/08/03 09:32:39;;;;;;;3.23;0.50;;;;;;;;;;5119398;27;20053;-60
2023/08/03 09:35:18;;;;;;;2.53;0.50;;;;;;;;;;5130894;27;20023;-59
2023/08/03 09:37:43;;;;;;;2.17;0.40;;;;;;;;;;5127082;27;21095;-61
2023/08/03 09:40:09;;;;;;;2.58;0.45;;;;;;;;;;5123917;27;20026;-61
2023/08/03 09:42:36;;;;;;;1.33;0.32;;;;;;;;;;5133353;27;20489;-60
2023/08/03 09:45:02;;;;;;;4.07;0.60;;;;;;;;;;5126151;27;20569;-61
2023/08/03 09:47:29;;;;;;;1.27;0.30;;;;;;;;;;5126433;27;20031;-62
2023/08/03 09:49:54;;;;;;;2.97;0.40;;;;;;;;;;5120627;27;20014;-59
2023/08/03 09:52:21;;;;;;;3.50;0.30;;;;;;;;;;5130721;27;20389;-60
2023/08/03 09:54:57;;;;;;;2.45;0.60;;;;;;;;;;5131523;27;20022;-60
2023/08/03 09:57:23;;;;;;;3.30;0.47;;;;;;;;;;5123566;27;20016;-62
2023/08/03 09:59:51;;;;;;;3.80;0.30;;;;;;;;;;5123235;27;20961;-60
2023/08/03 10:02:19;;;;;;;1.75;0.30;;;;;;;;;;5123779;27;20020;-61
2023/08/03 10:04:48;;;;;;;2.42;0.30;;;;;;;;;;5118428;27;20045;-61
2023/08/03 10:07:15;;;;;;;2.13;0.38;;;;;;;;;;5116776;27;20030;-59
2023/08/03 10:09:43;;;;;;;2.25;0.45;;;;;;;;;;5117820;27;20031;-61
2023/08/03 10:12:10;;;;;;;1.17;0.30;;;;;;;;;;5119787;27;20030;-61
2023/08/03 10:14:39;;;;;;;1.48;0.40;;;;;;;;;;5135846;27;20023;-61
2023/08/03 10:17:05;;;;;;;2.50;0.32;;;;;;;;;;5131175;27;20448;-60
2023/08/03 10:19:31;;;;;;;2.30;0.35;;;;;;;;;;5123799;27;20103;-60
2023/08/03 10:21:56;;;;;;;3.13;0.45;;;;;;;;;;5131362;27;20015;-59
2023/08/03 10:24:21;;;;;;;1.53;0.40;;;;;;;;;;5128395;27;20090;-61
2023/08/03 10:26:50;;;;;;;3.30;0.87;;;;;;;;;;5129435;27;20015;-61
2023/08/03 10:29:15;;;;;;;4.32;0.45;;;;;;;;;;5110790;27;20019;-60
2023/08/03 10:31:53;;;;;;;1.27;0.30;;;;;;;;;;5121664;27;20505;-61
2023/08/03 10:34:25;;;;;;;2.45;0.30;;;;;;;;;;5123467;27;20099;-63
2023/08/03 10:36:53;;;;;;;2.97;0.50;;;;;;;;;;5135174;27;20209;-58
2023/08/03 10:39:38;;;;;;;2.22;0.45;;;;;;;;;;5133505;27;20608;-60
2023/08/03 10:42:17;;;;;;;3.03;0.90;;;;;;;;;;5126607;27;20080;-59
2023/08/03 10:44:42;;;;;;;2.45;0.40;;;;;;;;;;5116111;27;20028;-60
2023/08/03 10:47:20;;;;;;;1.80;0.30;;;;;;;;;;5123603;27;20025;-60
2023/08/03 10:49:49;;;;;;;3.33;0.40;;;;;;;;;;5118929;27;20512;-61
2023/08/03 10:52:18;;;;;;;3.45;0.40;;;;;;;;;;5119546;27;20035;-59
2023/08/03 10:54:43;;;;;;;1.65;0.40;;;;;;;;;;5129325;27;20096;-60
2023/08/03 10:57:09;;;;;;;3.90;0.50;;;;;;;;;;5134319;27;20478;-61
2023/08/03 10:59:45;;;;;;;2.72;0.60;;;;;;;;;;5125701;27;20476;-60
2023/08/03 11:02:14;;;;;;;2.10;0.40;;;;;;;;;;5116559;27;20020;-60
2023/08/03 11:04:40;;;;;;;3.05;0.50;;;;;;;;;;5128683;27;20509;-61
2023/08/03 11:07:07;;;;;;;2.70;0.50;;;;;;;;;;5135287;27;20046;-60
2023/08/03 11:09:32;;;;;;;3.20;0.70;;;;;;;;;;5134848;27;20015;-59
2023/08/03 11:11:57;;;;;;;3.90;0.60;;;;;;;;;;5133699;27;20030;-60
2023/08/03 11:14:24;;;;;;;2.67;0.55;;;;;;;;;;5129200;27;20047;-61
2023/08/03 11:16:49;;;;;;;1.00;0.40;;;;;;;;;;5130478;27;20050;-63
2023/08/03 11:19:14;;;;;;;5.37;0.70;;;;;;;;;;5129183;27;20382;-61
2023/08/03 11:21:43;;;;;;;3.20;0.60;;;;;;;;;;5132822;27;20484;-61
2023/08/03 11:24:09;;;;;;;2.90;0.60;;;;;;;;;;5117488;27;20547;-60
2023/08/03 11:26:35;;;;;;;2.85;0.50;;;;;;;;;;5130617;27;20027;-62
2023/08/03 11:29:00;;;;;;;3.93;0.50;;;;;;;;;;5117058;27;20042;-60
2023/08/03 11:31:25;;;;;;;3.50;0.50;;;;;;;;;;5126948;27;20382;-61
2023/08/03 11:33:51;;;;;;;3.97;0.70;;;;;;;;;;5128358;27;20015;-60
2023/08/03 11:36:17;;;;;;;1.95;0.40;;;;;;;;;;5117551;27;20015;-60
2023/08/03 11:38:42;;;;;;;1.35;0.30;;;;;;;;;;5116383;27;20020;-62
2023/08/03 11:41:07;;;;;;;2.30;0.40;;;;;;;;;;5122436;27;20031;-58
2023/08/03 11:43:33;;;;;;;3.03;0.60;;;;;;;;;;5117978;27;20027;-62
2023/08/03 11:45:58;;;;;;;;;;;;;;;;;;5126709;27;20026;-62
2023/08/03 11:48:24;;;;;;;3.10;0.70;;;;;;;;;;5118550;27;19907;-60
2023/08/03 11:50:50;;;;;;;2.88;0.50;;;;;;;;;;5133111;27;20217;-61
2023/08/03 11:53:23;;;;;;;11.03;0.83;;;;;;;;;;5121886;27;20482;-59
2023/08/03 11:55:48;;;;;;;6.10;0.60;;;;;;;;;;5126070;27;20055;-61
2023/08/03 11:58:13;;;;;;;4.93;0.67;;;;;;;;;;5132550;27;20053;-60
2023/08/03 12:00:38;;;;;;;;;;;;;;;;;;5127948;27;20054;-60
2023/08/03 12:03:04;;;;;;;3.83;0.65;;;;;;;;;;5121171;27;19958;-62
2023/08/03 12:05:41;;;;;;;5.28;1.08;;;;;;;;;;5132721;27;20545;-64
2023/08/03 12:08:08;;;;;;;4.43;1.08;;;;;;;;;;5132792;27;20067;-60
2023/08/03 12:10:33;;;;;;;3.33;0.65;;;;;;;;;;5138221;27;20037;-60
2023/08/03 12:12:58;;;;;;;4.78;0.70;;;;;;;;;;5127984;27;20023;-61
2023/08/03 12:15:23;;;;;;;;;;;;;;;;;;5136938;27;20032;-60
2023/08/03 12:17:49;;;;;;;3.20;0.77;;;;;;;;;;5125600;27;19912;-61
2023/08/03 12:20:15;;;;;;;0.85;0.22;;;;;;;;;;5114044;27;20096;-60
2023/08/03 12:22:40;;;;;;;3.30;0.70;;;;;;;;;;5128588;27;20470;-61
2023/08/03 12:25:05;;;;;;;;;;;;;;;;;;5127372;27;20106;-62
2023/08/03 12:27:30;;;;;;;3.90;0.60;;;;;;;;;;5120120;27;20362;-60
2023/08/03 12:29:55;;;;;;;3.20;0.60;;;;;;;;;;5124454;27;20047;-60
2023/08/03 12:32:20;;;;;;;;;;;;;;;;;;5125180;27;20120;-60
2023/08/03 12:34:46;;;;;;;2.30;0.50;;;;;;;;;;5109622;27;19914;-62
2023/08/03 12:37:11;;;;;;;1.00;0.40;;;;;;;;;;5122993;27;20026;-60
2023/08/03 12:39:36;;;;;;;2.05;0.50;;;;;;;;;;5113206;27;20065;-61
2023/08/03 12:42:01;;;;;;;2.07;0.50;;;;;;;;;;5122261;27;20090;-62
2023/08/03 12:44:26;;;;;;;;;;;;;;;;;;5122439;27;20023;-61
2023/08/03 12:46:52;;;;;;;4.07;0.70;;;;;;;;;;5127280;27;19908;-59
2023/08/03 12:49:18;;;;;;;3.33;0.60;;;;;;;;;;5110718;27;20608;-59
2023/08/03 12:51:43;;;;;;;2.20;0.50;;;;;;;;;;5114340;27;20558;-61
2023/08/03 12:54:09;;;;;;;1.83;0.40;;;;;;;;;;5121033;27;20135;-61
2023/08/03 12:56:38;;;;;;;2.07;0.60;;;;;;;;;;5129210;27;20084;-60
2023/08/03 12:59:03;;;;;;;1.52;0.30;;;;;;;;;;5121141;27;20019;-58
2023/08/03 13:01:29;;;;;;;2.80;0.60;;;;;;;;;;5115001;27;20563;-61
2023/08/03 13:03:54;;;;;;;5.53;0.70;;;;;;;;;;5117868;27;20048;-59
2023/08/03 13:06:20;;;;;;;;;;;;;;;;;;5120956;27;20015;-60
2023/08/03 13:08:45;;;;;;;3.13;0.60;;;;;;;;;;5125173;27;20023;-61
2023/08/03 13:11:10;;;;;;;3.30;0.50;;;;;;;;;;5120761;27;20057;-60
2023/08/03 13:13:35;;;;;;;2.38;0.60;;;;;;;;;;5119459;27;20027;-60
2023/08/03 13:16:01;;;;;;;2.85;0.50;;;;;;;;;;5113419;27;20419;-62
2023/08/03 13:18:26;;;;;;;;;;;;;;;;;;5118528;27;20058;-61
2023/08/03 13:20:51;;;;;;;6.10;0.73;;;;;;;;;;5117801;27;19926;-60
2023/08/03 13:23:16;;;;;;;;;;;;;;;;;;5125400;27;20468;-60
2023/08/03 13:25:41;;;;;;;1.42;0.40;;;;;;;;;;5119947;27;19988;-61
2023/08/03 13:28:06;;;;;;;3.63;0.40;;;;;;;;;;5116827;27;21485;-59
2023/08/03 13:30:32;;;;;;;;;;;;;;;;;;5124414;27;20091;-61
2023/08/03 13:32:57;;;;;;;3.08;0.40;;;;;;;;;;5119894;27;20268;-61
2023/08/03 13:35:22;;;;;;;2.50;0.47;;;;;;;;;;5126409;27;20533;-59
2023/08/03 13:37:48;;;;;;;1.57;0.50;;;;;;;;;;5121710;27;20095;-61
2023/08/03 13:40:14;;;;;;;2.08;0.50;;;;;;;;;;5116970;27;20035;-60
2023/08/03 13:42:39;;;;;;;2.47;0.35;;;;;;;;;;5115646;27;20019;-60
2023/08/03 13:45:04;;;;;;;;;;;;;;;;;;5110623;27;20126;-60
2023/08/03 13:47:29;;;;;;;3.17;0.40;;;;;;;;;;5120187;27;20313;-60
2023/08/03 13:49:55;;;;;;;;;;;;;;;;;;5112532;27;20037;-60
2023/08/03 13:52:20;;;;;;;1.43;0.30;;;;;;;;;;5110568;27;19968;-60
2023/08/03 13:54:45;;;;;;;3.45;0.40;;;;;;;;;;5119987;27;21002;-60
2023/08/03 13:57:10;;;;;;;;;;;;;;;;;;5115776;27;20054;-60
2023/08/03 13:59:35;;;;;;;2.43;0.43;;;;;;;;;;5118233;27;19911;-65
2023/08/03 14:02:01;;;;;;;0.77;0.30;;;;;;;;;;5115789;27;20511;-60
2023/08/03 14:04:31;;;;;;;2.85;0.47;;;;;;;;;;5101868;27;20119;-61
2023/08/03 14:06:57;;;;;;;3.92;0.57;;;;;;;;;;5110678;27;20019;-60
2023/08/03 14:09:23;;;;;;;1.48;0.22;;;;;;;;;;5111902;27;20019;-63
2023/08/03 14:11:49;;;;;;;4.70;0.40;;;;;;;;;;5111886;27;20016;-61
2023/08/03 14:14:15;;;;;;;3.30;0.50;;;;;;;;;;5108574;27;20066;-60
2023/08/03 14:16:46;;;;;;;1.77;0.23;;;;;;;;;;5118908;27;20058;-59
2023/08/03 14:19:11;;;;;;;2.53;0.50;;;;;;;;;;5109575;27;20028;-59
2023/08/03 14:21:36;;;;;;;3.00;0.40;;;;;;;;;;5116326;27;20099;-62
2023/08/03 14:24:01;;;;;;;1.97;0.60;;;;;;;;;;5116023;27;20577;-61
2023/08/03 14:26:26;;;;;;;3.20;0.50;;;;;;;;;;5118496;27;20034;-60
2023/08/03 14:28:51;;;;;;;2.83;0.52;;;;;;;;;;5121850;27;20442;-61
2023/08/03 14:31:18;;;;;;;0.35;0.25;;;;;;;;;;5115924;27;20023;-61
2023/08/03 14:33:43;;;;;;;2.60;0.50;;;;;;;;;;5116147;27;20020;-61
2023/08/03 14:36:09;;;;;;;1.77;0.37;;;;;;;;;;5111386;27;20024;-61
2023/08/03 14:38:34;;;;;;;;;;;;;;;;;;5115151;27;20096;-60
2023/08/03 14:40:59;;;;;;;1.73;0.40;;;;;;;;;;5106568;27;19915;-59